This is the latest recevied weather packets stored in our database for station/object AD8BV. If no packets are shown the sender has not sent any weather packets the latest 10 day(s).
| Time | Temp. | Humidity | Pressure | Rain* | Wind** | Luminosity | Snow |
|---|---|---|---|---|---|---|---|
| 1777725239 | 2.78° C | 80% | 1020.2 hPa | 0 mm | - | 145 W/m² | - |
| 1777724936 | 2.22° C | 81% | 1020.3 hPa | 0 mm | - | 116 W/m² | - |
| 1777724632 | 2.22° C | 81% | 1020.2 hPa | 0 mm | - | 95 W/m² | - |
| 1777724331 | 2.22° C | 81% | 1020.3 hPa | 0 mm | - | 77 W/m² | - |
| 1777724028 | 1.67° C | 83% | 1020.3 hPa | 0 mm | - | 43 W/m² | - |
| 1777723725 | 1.67° C | 84% | 1020.2 hPa | 0 mm | - | 37 W/m² | - |
| 1777723421 | 1.67° C | 84% | 1020.1 hPa | 0 mm | - | 50 W/m² | - |
| 1777723118 | 1.67° C | 84% | 1020.1 hPa | 0 mm | - | 46 W/m² | - |
| 1777722815 | 1.11° C | 85% | 1020.1 hPa | 0 mm | - | 37 W/m² | - |
| 1777722512 | 0.56° C | 87% | 1019.9 hPa | 0 mm | - | 42 W/m² | - |
| 1777722209 | 0.56° C | 89% | 1020.1 hPa | 0 mm | - | 33 W/m² | - |
| 1777721906 | 0° C | 91% | 1019.9 hPa | 0 mm | - | 29 W/m² | - |
| 1777721603 | 0° C | 92% | 1020.1 hPa | 0 mm | - | 26 W/m² | - |
| 1777721302 | -0.56° C | 93% | 1019.9 hPa | 0 mm | - | 23 W/m² | - |
| 1777720998 | -1.11° C | 93% | 1019.8 hPa | 0 mm | - | 16 W/m² | - |
| 1777720696 | -1.11° C | 93% | 1019.9 hPa | 0 mm | - | 17 W/m² | - |
| 1777720393 | -1.67° C | 93% | 1019.5 hPa | 0 mm | - | 19 W/m² | - |
| 1777720091 | -1.67° C | 94% | 1019.5 hPa | 0 mm | - | 14 W/m² | - |
| 1777719789 | -1.67° C | 94% | 1019.7 hPa | 0 mm | - | 10 W/m² | - |
| 1777719486 | -2.22° C | 94% | 1019.5 hPa | 0 mm | - | 8 W/m² | - |
| 1777719182 | -2.22° C | 93% | 1019.5 hPa | 0 mm | - | 6 W/m² | - |
| 1777718881 | -2.22° C | 93% | 1019.5 hPa | 0 mm | - | 4 W/m² | - |
| 1777718577 | -2.22° C | 93% | 1019.7 hPa | 0 mm | - | 3 W/m² | - |
| 1777718275 | -2.22° C | 93% | 1019.5 hPa | 0 mm | - | 2 W/m² | - |
| 1777717972 | -2.22° C | 93% | 1019.5 hPa | 0 mm | - | 0 W/m² | - |
* Rain latest hour (hover to see other rain measurements)
** Current wind speed in m/s (hover to see current wind gust speed)